createdAt,value
2018-05-25T00:00:48.345Z,18.23
2018-05-25T00:03:17.549Z,23.37
2018-05-25T00:05:44.878Z,16.57
2018-05-25T00:08:15.285Z,19.73
2018-05-25T00:10:47.856Z,20.77
2018-05-25T00:13:16.445Z,18.20
2018-05-25T00:15:45.868Z,17.50
2018-05-25T00:18:19.024Z,18.93
2018-05-25T00:20:45.929Z,22.93
2018-05-25T00:23:18.200Z,18.30
2018-05-25T00:25:46.592Z,16.03
2018-05-25T00:28:16.648Z,15.27
2018-05-25T00:30:45.020Z,16.87
2018-05-25T00:33:12.728Z,21.43
2018-05-25T00:35:51.839Z,19.47
2018-05-25T00:38:19.992Z,18.87
2018-05-25T00:40:48.623Z,18.27
2018-05-25T00:43:15.261Z,17.13
2018-05-25T00:45:46.520Z,17.73
2018-05-25T00:48:21.968Z,19.30
2018-05-25T00:50:48.649Z,19.30
2018-05-25T00:53:15.997Z,19.93
2018-05-25T00:55:52.903Z,16.43
2018-05-25T00:58:23.422Z,24.50
2018-05-25T01:00:50.025Z,18.20
2018-05-25T01:03:30.459Z,19.77
2018-05-25T01:06:04.787Z,24.97
2018-05-25T01:08:36.244Z,25.43
2018-05-25T01:11:02.910Z,21.93
2018-05-25T01:13:38.462Z,25.03
2018-05-25T01:16:09.820Z,21.63
2018-05-25T01:18:54.432Z,25.23
2018-05-25T01:21:27.905Z,24.57
2018-05-25T01:23:55.240Z,24.40
2018-05-25T01:26:22.637Z,21.47
2018-05-25T01:29:14.324Z,21.80
2018-05-25T01:31:41.751Z,17.53
2018-05-25T01:34:24.428Z,20.10
2018-05-25T01:36:56.913Z,19.57
2018-05-25T01:39:32.744Z,15.97
2018-05-25T01:42:01.327Z,16.83
2018-05-25T01:44:30.781Z,17.53
2018-05-25T01:46:58.312Z,19.03
2018-05-25T01:49:27.725Z,21.70
2018-05-25T01:51:59.310Z,19.27
2018-05-25T01:54:28.597Z,42.13
2018-05-25T01:57:01.085Z,21.13
2018-05-25T01:59:34.728Z,25.43
2018-05-25T02:02:03.112Z,16.90
2018-05-25T02:04:32.105Z,24.70
2018-05-25T02:07:04.528Z,17.90
2018-05-25T02:09:31.860Z,16.93
2018-05-25T02:12:02.341Z,16.97
2018-05-25T02:14:45.439Z,17.67
2018-05-25T02:17:17.945Z,16.60
2018-05-25T02:19:47.648Z,13.73
2018-05-25T02:22:15.015Z,16.40
2018-05-25T02:24:52.816Z,18.33
2018-05-25T02:27:29.615Z,15.53
2018-05-25T02:30:00.049Z,17.17
2018-05-25T02:32:27.720Z,19.70
2018-05-25T02:35:09.912Z,18.23
2018-05-25T02:37:38.432Z,14.73
2018-05-25T02:40:05.817Z,13.03
2018-05-25T02:42:34.392Z,16.27
2018-05-25T02:45:15.342Z,15.13
2018-05-25T02:47:43.976Z,16.73
2018-05-25T02:50:12.137Z,18.47
2018-05-25T02:52:42.202Z,18.40
2018-05-25T02:55:13.881Z,17.57
2018-05-25T02:57:41.236Z,17.17
2018-05-25T03:00:13.632Z,16.70
2018-05-25T03:02:48.977Z,16.10
2018-05-25T03:05:16.359Z,17.03
2018-05-25T03:07:57.377Z,16.60
2018-05-25T03:10:32.787Z,18.77
2018-05-25T03:13:00.155Z,17.30
2018-05-25T03:15:34.487Z,15.87
2018-05-25T03:18:07.689Z,16.77
2018-05-25T03:20:40.073Z,18.10
2018-05-25T03:23:08.116Z,15.60
2018-05-25T03:25:41.268Z,15.63
2018-05-25T03:28:13.136Z,13.43
2018-05-25T03:30:41.835Z,17.93
2018-05-25T03:33:12.405Z,15.53
2018-05-25T03:35:43.849Z,22.53
2018-05-25T03:38:16.272Z,16.93
2018-05-25T03:40:50.462Z,16.03
2018-05-25T03:43:24.980Z,15.27
2018-05-25T03:45:57.474Z,26.63
2018-05-25T03:48:28.217Z,17.83
2018-05-25T03:50:59.468Z,19.40
2018-05-25T03:53:27.972Z,17.57
2018-05-25T03:55:55.345Z,17.23
2018-05-25T03:58:43.629Z,16.20
2018-05-25T04:01:32.170Z,17.83
2018-05-25T04:04:01.590Z,17.73
2018-05-25T04:06:38.152Z,16.37
2018-05-25T04:09:11.725Z,15.80
2018-05-25T04:11:56.281Z,15.33
2018-05-25T04:14:33.125Z,16.67
2018-05-25T04:16:59.798Z,13.70
2018-05-25T04:19:31.273Z,13.90
2018-05-25T04:21:59.857Z,15.60
2018-05-25T04:24:32.435Z,14.87
2018-05-25T04:27:02.772Z,14.03
2018-05-25T04:29:29.421Z,18.13
2018-05-25T04:31:57.813Z,12.00
2018-05-25T04:34:27.220Z,13.40
2018-05-25T04:36:55.189Z,13.57
2018-05-25T04:39:26.160Z,11.07
2018-05-25T04:41:58.861Z,13.83
2018-05-25T04:44:26.425Z,10.37
2018-05-25T04:46:55.668Z,18.57
2018-05-25T04:49:26.689Z,19.27
2018-05-25T04:51:58.177Z,14.17
2018-05-25T04:54:28.284Z,11.03
2018-05-25T04:56:56.680Z,11.10
2018-05-25T04:59:24.612Z,11.17
2018-05-25T05:01:54.715Z,11.50
2018-05-25T05:04:22.665Z,13.07
2018-05-25T05:06:52.921Z,12.80
2018-05-25T05:09:21.156Z,12.37
2018-05-25T05:11:53.256Z,11.97
2018-05-25T05:14:28.926Z,13.83
2018-05-25T05:16:58.272Z,13.60
2018-05-25T05:19:24.823Z,12.07
2018-05-25T05:21:52.116Z,11.80
2018-05-25T05:24:19.529Z,12.67
2018-05-25T05:26:50.980Z,13.17
2018-05-25T05:29:18.464Z,13.70
2018-05-25T05:31:46.849Z,12.00
2018-05-25T05:34:14.156Z,21.33
2018-05-25T05:36:41.537Z,33.67
2018-05-25T05:39:14.459Z,211.57
2018-05-25T05:41:44.853Z,71.17
2018-05-25T05:44:14.689Z,42.93
2018-05-25T05:46:42.420Z,143.47
2018-05-25T05:49:10.807Z,60.97
2018-05-25T05:51:47.808Z,275.77
2018-05-25T05:54:14.452Z,68.00
2018-05-25T05:56:42.857Z,75.47
2018-05-25T05:59:11.236Z,78.10
2018-05-25T06:01:37.904Z,85.60
2018-05-25T06:04:04.494Z,73.83
2018-05-25T06:06:31.028Z,103.93
2018-05-25T06:08:57.862Z,37.43
2018-05-25T06:11:25.509Z,24.50
2018-05-25T06:13:57.922Z,45.03
2018-05-25T06:16:24.480Z,121.33
2018-05-25T06:18:53.033Z,83.03
2018-05-25T06:21:24.705Z,160.80
2018-05-25T06:23:58.320Z,172.43
2018-05-25T06:26:25.992Z,58.60
2018-05-25T06:28:57.036Z,32.83
2018-05-25T06:31:28.625Z,209.37
2018-05-25T06:33:56.877Z,48.80
2018-05-25T06:36:24.385Z,123.73
2018-05-25T06:38:51.969Z,110.60
2018-05-25T06:41:23.502Z,200.50
2018-05-25T06:43:51.812Z,261.60
2018-05-25T06:46:20.835Z,122.43
2018-05-25T06:48:48.080Z,44.77
2018-05-25T06:51:16.451Z,165.60
2018-05-25T06:53:44.843Z,31.20
2018-05-25T06:56:13.245Z,41.27
2018-05-25T06:58:52.380Z,47.50
2018-05-25T07:01:19.723Z,23.50
2018-05-25T07:03:50.085Z,24.30
2018-05-25T07:06:17.268Z,27.43
2018-05-25T07:08:45.888Z,84.00
2018-05-25T07:11:14.361Z,24.50
2018-05-25T07:13:41.717Z,30.23
2018-05-25T07:16:11.112Z,61.73
2018-05-25T07:18:39.515Z,67.70
2018-05-25T07:21:07.787Z,41.67
2018-05-25T07:23:34.908Z,66.90
2018-05-25T07:26:02.346Z,77.43
2018-05-25T07:28:28.983Z,39.93
2018-05-25T07:30:57.380Z,43.10
2018-05-25T07:33:26.012Z,43.23
2018-05-25T07:36:00.301Z,51.53
2018-05-25T07:38:29.596Z,35.07
2018-05-25T07:40:58.209Z,39.80
2018-05-25T07:43:28.341Z,48.10
2018-05-25T07:45:56.305Z,40.43
2018-05-25T07:48:30.388Z,41.80
2018-05-25T07:50:59.404Z,44.57
2018-05-25T07:53:26.809Z,39.13
2018-05-25T07:55:57.113Z,35.43
2018-05-25T07:58:24.556Z,40.37
2018-05-25T08:00:51.984Z,43.90
2018-05-25T08:03:23.775Z,49.87
2018-05-25T08:05:50.310Z,42.20
2018-05-25T08:08:20.613Z,46.20
2018-05-25T08:10:48.808Z,38.80
2018-05-25T08:13:16.392Z,44.23
2018-05-25T08:15:47.860Z,44.87
2018-05-25T08:18:18.192Z,47.60
2018-05-25T08:20:45.604Z,52.23
2018-05-25T08:23:16.514Z,51.33
2018-05-25T08:25:47.066Z,50.60
2018-05-25T08:28:15.310Z,48.60
2018-05-25T08:30:44.352Z,51.83
2018-05-25T08:33:12.958Z,49.40
2018-05-25T08:35:43.814Z,53.97
2018-05-25T08:38:11.113Z,49.33
2018-05-25T08:40:37.820Z,46.33
2018-05-25T08:43:06.228Z,47.03
2018-05-25T08:45:34.621Z,45.63
2018-05-25T08:48:03.780Z,49.00
2018-05-25T08:50:32.217Z,49.87
2018-05-25T08:52:59.541Z,44.50
2018-05-25T08:55:26.937Z,51.37
2018-05-25T08:57:53.798Z,44.57
2018-05-25T09:00:21.121Z,44.30
2018-05-25T09:02:52.314Z,49.50
2018-05-25T09:05:20.296Z,46.17
2018-05-25T09:07:48.426Z,42.47
2018-05-25T09:10:16.113Z,45.10
2018-05-25T09:12:45.778Z,43.20
2018-05-25T09:15:14.176Z,47.87
2018-05-25T09:17:41.540Z,45.53
2018-05-25T09:20:08.946Z,43.80
2018-05-25T09:22:36.904Z,47.23
2018-05-25T09:25:04.288Z,42.80
2018-05-25T09:27:31.736Z,38.40
2018-05-25T09:30:01.923Z,40.37
2018-05-25T09:32:30.599Z,44.80
2018-05-25T09:34:57.993Z,40.67
2018-05-25T09:37:24.565Z,37.13
2018-05-25T09:39:51.212Z,35.87
2018-05-25T09:42:18.559Z,34.47
2018-05-25T09:44:45.956Z,36.80
2018-05-25T09:47:13.790Z,34.10
2018-05-25T09:49:41.408Z,31.23
2018-05-25T09:52:08.725Z,31.50
2018-05-25T09:54:37.172Z,30.30
2018-05-25T09:57:04.548Z,29.90
2018-05-25T09:59:34.016Z,31.43
2018-05-25T10:02:00.597Z,32.00
2018-05-25T10:04:27.968Z,30.63
2018-05-25T10:06:54.620Z,27.27
2018-05-25T10:09:21.968Z,27.70
2018-05-25T10:11:50.370Z,27.57
2018-05-25T10:14:17.729Z,25.87
2018-05-25T10:16:46.085Z,25.93
2018-05-25T10:19:13.497Z,31.40
2018-05-25T10:21:41.383Z,25.47
2018-05-25T10:24:08.030Z,23.07
2018-05-25T10:26:34.571Z,20.33
2018-05-25T10:29:01.979Z,23.50
2018-05-25T10:31:29.436Z,24.20
2018-05-25T10:33:56.800Z,25.13
2018-05-25T10:36:24.080Z,18.50
2018-05-25T10:38:51.464Z,19.50
2018-05-25T10:41:19.897Z,18.90
2018-05-25T10:43:48.924Z,18.40
2018-05-25T10:46:16.273Z,20.87
2018-05-25T10:48:42.913Z,21.87
2018-05-25T10:51:10.307Z,17.50
2018-05-25T10:53:36.942Z,24.80
2018-05-25T10:56:04.987Z,17.37
2018-05-25T10:58:31.781Z,16.73
2018-05-25T11:00:58.348Z,12.57
2018-05-25T11:03:25.691Z,13.47
2018-05-25T11:05:53.068Z,11.07
2018-05-25T11:08:19.704Z,9.57
2018-05-25T11:10:47.086Z,12.80
2018-05-25T11:13:14.604Z,12.77
2018-05-25T11:15:41.404Z,14.50
2018-05-25T11:18:08.147Z,10.60
2018-05-25T11:20:34.825Z,10.13
2018-05-25T11:23:02.132Z,11.83
2018-05-25T11:25:29.424Z,12.67
2018-05-25T11:27:56.823Z,8.33
2018-05-25T11:30:24.169Z,11.60
2018-05-25T11:32:50.776Z,12.23
2018-05-25T11:35:18.892Z,12.50
2018-05-25T11:37:47.232Z,10.70
2018-05-25T11:40:14.684Z,9.93
2018-05-25T11:42:41.296Z,8.40
2018-05-25T11:45:09.335Z,9.00
2018-05-25T11:47:36.048Z,9.53
2018-05-25T11:50:02.716Z,9.53
2018-05-25T11:52:30.052Z,7.93
2018-05-25T11:54:57.420Z,8.57
2018-05-25T11:57:23.985Z,13.23
2018-05-25T11:59:51.958Z,15.77
2018-05-25T12:02:19.357Z,8.53
2018-05-25T12:04:45.965Z,8.80
2018-05-25T12:07:13.301Z,9.40
2018-05-25T12:09:42.441Z,9.20
2018-05-25T12:12:10.737Z,7.30
2018-05-25T12:14:38.527Z,15.83
2018-05-25T12:17:05.168Z,10.37
2018-05-25T12:19:32.512Z,7.40
2018-05-25T12:22:00.426Z,10.77
2018-05-25T12:24:34.840Z,6.57
2018-05-25T12:27:07.252Z,8.50
2018-05-25T12:29:34.645Z,7.50
2018-05-25T12:32:02.989Z,16.97
2018-05-25T12:34:30.324Z,6.70
2018-05-25T12:36:58.437Z,7.20
2018-05-25T12:39:25.808Z,7.20
2018-05-25T12:41:53.989Z,7.50
2018-05-25T12:44:21.380Z,11.17
2018-05-25T12:46:48.013Z,7.07
2018-05-25T12:49:15.373Z,8.43
2018-05-25T12:51:42.129Z,7.10
2018-05-25T12:54:08.868Z,7.90
2018-05-25T12:56:35.624Z,5.90
2018-05-25T12:59:02.389Z,6.30
2018-05-25T13:01:29.744Z,6.80
2018-05-25T13:03:57.144Z,6.13
2018-05-25T13:06:23.756Z,6.10
2018-05-25T13:08:51.965Z,6.20
2018-05-25T13:11:19.317Z,5.63
2018-05-25T13:13:46.717Z,5.63
2018-05-25T13:16:14.049Z,4.30
2018-05-25T13:18:41.733Z,6.50
2018-05-25T13:21:09.112Z,5.53
2018-05-25T13:23:36.428Z,4.37
2018-05-25T13:26:03.134Z,5.93
2018-05-25T13:28:30.490Z,4.80
2018-05-25T13:30:57.130Z,11.03
2018-05-25T13:33:24.456Z,5.87
2018-05-25T13:35:51.868Z,6.40
2018-05-25T13:38:19.659Z,7.00
2018-05-25T13:40:47.004Z,6.00
2018-05-25T13:43:14.724Z,5.43
2018-05-25T13:45:42.028Z,7.00
2018-05-25T13:48:09.436Z,8.57
2018-05-25T13:50:36.793Z,8.23
2018-05-25T13:53:04.171Z,8.43
2018-05-25T13:55:31.572Z,14.87
2018-05-25T13:57:58.984Z,10.93
2018-05-25T14:00:27.381Z,11.83
2018-05-25T14:02:54.749Z,14.17
2018-05-25T14:05:22.077Z,12.20
2018-05-25T14:07:49.488Z,14.83
2018-05-25T14:10:16.844Z,15.13
2018-05-25T14:12:45.143Z,13.40
2018-05-25T14:15:11.800Z,13.50
2018-05-25T14:17:39.128Z,11.83
2018-05-25T14:20:05.816Z,10.90
2018-05-25T14:22:33.506Z,11.77
2018-05-25T14:25:00.148Z,19.13
2018-05-25T14:27:26.785Z,17.37
2018-05-25T14:29:55.181Z,15.07
2018-05-25T14:32:23.525Z,14.73
2018-05-25T14:34:56.156Z,17.00
2018-05-25T14:37:23.532Z,17.10
2018-05-25T14:39:50.841Z,24.07
2018-05-25T14:42:27.278Z,17.30
2018-05-25T14:44:54.615Z,14.70
2018-05-25T14:47:23.353Z,15.00
2018-05-25T14:49:50.648Z,13.40
2018-05-25T14:52:23.083Z,11.93
2018-05-25T14:54:50.460Z,11.97
2018-05-25T14:57:17.109Z,10.20
2018-05-25T14:59:44.590Z,11.67
2018-05-25T15:02:11.989Z,10.33
2018-05-25T15:04:39.312Z,8.90
2018-05-25T15:07:05.981Z,8.80
2018-05-25T15:09:36.141Z,8.67
2018-05-25T15:12:05.182Z,8.07
2018-05-25T15:14:31.862Z,7.30
2018-05-25T15:16:59.221Z,7.20
2018-05-25T15:19:26.579Z,7.20
2018-05-25T15:21:53.904Z,5.37
2018-05-25T15:24:21.316Z,6.37
2018-05-25T15:26:48.705Z,5.73
2018-05-25T15:29:16.076Z,4.40
2018-05-25T15:31:43.467Z,4.60
2018-05-25T15:34:13.132Z,5.23
2018-05-25T15:36:41.534Z,4.93
2018-05-25T15:39:11.256Z,3.90
2018-05-25T15:41:39.642Z,4.60
2018-05-25T15:44:06.995Z,3.30
2018-05-25T15:46:35.081Z,3.13
2018-05-25T15:49:02.465Z,4.20
2018-05-25T15:51:29.857Z,3.93
2018-05-25T15:53:57.195Z,3.40
2018-05-25T15:56:25.608Z,4.13
2018-05-25T15:58:52.636Z,3.83
2018-05-25T16:01:20.028Z,3.83
2018-05-25T16:03:47.372Z,4.27
2018-05-25T16:06:14.729Z,8.10
2018-05-25T16:08:41.401Z,4.27
2018-05-25T16:11:09.103Z,3.80
2018-05-25T16:13:37.040Z,4.13
2018-05-25T16:16:04.406Z,5.73
2018-05-25T16:18:31.781Z,4.57
2018-05-25T16:20:59.177Z,4.23
2018-05-25T16:23:26.546Z,5.17
2018-05-25T16:25:53.900Z,6.70
2018-05-25T16:28:21.250Z,6.70
2018-05-25T16:30:48.704Z,9.80
2018-05-25T16:33:16.088Z,6.70
2018-05-25T16:35:43.460Z,7.47
2018-05-25T16:38:10.796Z,6.70
2018-05-25T16:40:38.408Z,8.47
2018-05-25T16:43:05.758Z,9.27
2018-05-25T16:45:33.127Z,7.80
2018-05-25T16:48:00.529Z,7.83
2018-05-25T16:50:27.810Z,7.70
2018-05-25T16:52:54.470Z,11.90
2018-05-25T16:55:21.772Z,10.13
2018-05-25T16:57:48.428Z,6.90
2018-05-25T17:00:16.601Z,7.20
2018-05-25T17:02:44.017Z,7.43
2018-05-25T17:05:12.368Z,6.90
2018-05-25T17:07:41.576Z,6.93
2018-05-25T17:10:11.865Z,7.03
2018-05-25T17:12:39.250Z,7.47
2018-05-25T17:15:10.218Z,6.87
2018-05-25T17:17:38.076Z,6.80
2018-05-25T17:20:05.512Z,6.13
2018-05-25T17:22:32.805Z,7.97
2018-05-25T17:25:00.450Z,9.03
2018-05-25T17:27:27.788Z,6.93
2018-05-25T17:29:56.089Z,6.73
2018-05-25T17:32:23.416Z,11.80
2018-05-25T17:34:50.804Z,7.17
2018-05-25T17:37:19.213Z,8.00
2018-05-25T17:39:46.574Z,7.00
2018-05-25T17:42:13.896Z,7.93
2018-05-25T17:44:40.484Z,8.73
2018-05-25T17:47:07.136Z,6.70
2018-05-25T17:49:40.346Z,5.43
2018-05-25T17:52:06.939Z,6.03
2018-05-25T17:54:34.357Z,5.47
2018-05-25T17:57:01.726Z,6.60
2018-05-25T17:59:31.145Z,5.90
2018-05-25T18:01:58.484Z,5.93
2018-05-25T18:04:31.822Z,5.57
2018-05-25T18:07:03.180Z,10.03
2018-05-25T18:09:29.764Z,5.67
2018-05-25T18:12:01.692Z,7.10
2018-05-25T18:14:30.090Z,5.90
2018-05-25T18:16:59.205Z,6.20
2018-05-25T18:19:26.572Z,5.03
2018-05-25T18:21:53.224Z,6.13
2018-05-25T18:24:19.836Z,5.43
2018-05-25T18:26:46.520Z,8.17
2018-05-25T18:29:13.881Z,6.67
2018-05-25T18:31:40.572Z,6.93
2018-05-25T18:34:07.292Z,6.30
2018-05-25T18:36:34.625Z,6.57
2018-05-25T18:39:01.341Z,7.17
2018-05-25T18:41:28.001Z,7.13
2018-05-25T18:43:54.817Z,7.10
2018-05-25T18:46:22.325Z,8.60
2018-05-25T18:48:49.140Z,8.10
2018-05-25T18:51:15.893Z,7.80
2018-05-25T18:53:44.280Z,9.77
2018-05-25T18:56:11.025Z,8.77
2018-05-25T18:58:37.785Z,6.07
2018-05-25T19:01:05.149Z,6.80
2018-05-25T19:03:31.932Z,7.43
2018-05-25T19:05:59.376Z,8.00
2018-05-25T19:08:26.128Z,12.10
2018-05-25T19:10:53.540Z,11.63
2018-05-25T19:13:21.051Z,9.27
2018-05-25T19:15:48.017Z,10.40
2018-05-25T19:18:15.382Z,9.50
2018-05-25T19:20:42.140Z,7.50
2018-05-25T19:23:08.781Z,7.97
2018-05-25T19:25:35.543Z,6.77
2018-05-25T19:28:02.349Z,6.33
2018-05-25T19:30:29.190Z,10.33
2018-05-25T19:32:57.229Z,8.40
2018-05-25T19:35:23.997Z,6.43
2018-05-25T19:37:50.732Z,6.13
2018-05-25T19:40:17.604Z,7.50
2018-05-25T19:42:44.986Z,7.80
2018-05-25T19:45:12.704Z,8.13
2018-05-25T19:47:39.472Z,7.53
2018-05-25T19:50:06.336Z,13.60
2018-05-25T19:52:33.080Z,12.43
2018-05-25T19:54:59.842Z,9.60
2018-05-25T19:57:26.593Z,15.53
2018-05-25T19:59:53.414Z,7.67
2018-05-25T20:02:20.204Z,10.00
2018-05-25T20:04:47.569Z,12.33
2018-05-25T20:07:14.256Z,7.63
2018-05-25T20:09:42.686Z,6.80
2018-05-25T20:12:09.525Z,10.43
2018-05-25T20:14:36.946Z,9.77
2018-05-25T20:17:04.351Z,8.10
2018-05-25T20:19:31.044Z,7.23
2018-05-25T20:21:58.434Z,9.73
2018-05-25T20:24:25.189Z,9.60
2018-05-25T20:26:51.941Z,10.57
2018-05-25T20:29:19.617Z,9.53
2018-05-25T20:31:46.973Z,11.77
2018-05-25T20:34:13.720Z,9.20
2018-05-25T20:36:40.497Z,7.60
2018-05-25T20:39:08.077Z,8.60
2018-05-25T20:41:36.444Z,8.87
2018-05-25T20:44:03.220Z,8.03
2018-05-25T20:46:29.945Z,8.97
2018-05-25T20:48:56.701Z,9.27
2018-05-25T20:51:23.364Z,8.33
2018-05-25T20:53:50.080Z,7.63
2018-05-25T20:56:17.416Z,8.03
2018-05-25T20:58:44.196Z,9.23
2018-05-25T21:01:11.581Z,8.37
2018-05-25T21:03:38.339Z,8.83
2018-05-25T21:06:05.104Z,9.23
2018-05-25T21:08:32.459Z,8.57
2018-05-25T21:10:59.312Z,7.60
2018-05-25T21:13:25.980Z,8.40
2018-05-25T21:15:52.732Z,9.20
2018-05-25T21:18:20.500Z,7.93
2018-05-25T21:20:47.269Z,11.53
2018-05-25T21:23:14.664Z,9.60
2018-05-25T21:25:41.538Z,14.90
2018-05-25T21:28:08.348Z,10.03
2018-05-25T21:30:35.701Z,8.60
2018-05-25T21:33:02.437Z,9.00
2018-05-25T21:35:29.128Z,9.80
2018-05-25T21:37:55.844Z,13.20
2018-05-25T21:40:22.609Z,9.50
2018-05-25T21:42:50.178Z,13.33
2018-05-25T21:45:16.924Z,10.40
2018-05-25T21:47:44.288Z,10.10
2018-05-25T21:50:11.441Z,12.97
2018-05-25T21:52:39.854Z,14.07
2018-05-25T21:55:06.598Z,11.90
2018-05-25T21:57:34.176Z,10.43
2018-05-25T22:00:01.645Z,10.70
2018-05-25T22:02:29.010Z,15.20
2018-05-25T22:04:55.755Z,12.83
2018-05-25T22:07:23.129Z,11.40
2018-05-25T22:09:49.904Z,11.53
2018-05-25T22:12:17.383Z,11.33
2018-05-25T22:14:44.828Z,12.00
2018-05-25T22:17:13.213Z,11.63
2018-05-25T22:19:39.885Z,11.10
2018-05-25T22:22:07.638Z,14.43
2018-05-25T22:24:36.236Z,12.50
2018-05-25T22:27:03.009Z,12.00
2018-05-25T22:29:29.663Z,12.60
2018-05-25T22:31:56.393Z,10.00
2018-05-25T22:34:23.765Z,11.00
2018-05-25T22:36:51.548Z,13.23
2018-05-25T22:39:18.218Z,9.13
2018-05-25T22:41:49.485Z,11.17
2018-05-25T22:44:29.160Z,11.90
2018-05-25T22:47:08.204Z,9.43
2018-05-25T22:49:47.868Z,11.27
2018-05-25T22:52:15.208Z,11.20
2018-05-25T22:54:42.081Z,9.70
2018-05-25T22:57:08.982Z,10.60
2018-05-25T22:59:35.736Z,12.70
2018-05-25T23:02:02.488Z,10.27
2018-05-25T23:04:29.850Z,10.30
2018-05-25T23:06:56.580Z,10.27
2018-05-25T23:09:25.080Z,9.50
2018-05-25T23:11:51.760Z,10.93
2018-05-25T23:14:19.132Z,12.97
2018-05-25T23:16:45.846Z,11.43
2018-05-25T23:19:13.433Z,10.23
2018-05-25T23:21:40.788Z,14.63
2018-05-25T23:24:08.308Z,11.60
2018-05-25T23:26:35.632Z,11.50
2018-05-25T23:29:02.390Z,12.30
2018-05-25T23:31:30.053Z,11.40
2018-05-25T23:33:58.752Z,15.03
2018-05-25T23:36:25.505Z,11.37
2018-05-25T23:38:52.274Z,11.33
2018-05-25T23:41:18.981Z,11.20
2018-05-25T23:43:46.385Z,14.23
2018-05-25T23:46:14.819Z,11.23
2018-05-25T23:48:41.521Z,12.17
2018-05-25T23:51:08.276Z,15.13
2018-05-25T23:53:35.037Z,12.67
2018-05-25T23:56:01.795Z,12.87
2018-05-25T23:58:28.428Z,13.63
